Time;durP1;ratioP1;P1;durP2;ratioP2;P2;SDS_P1;SDS_P2;PMS_P1;PMS_P2;Temp;Humidity;BMP_temperature;BMP_pressure;BME280_temperature;BME280_humidity;BME280_pressure;Samples;Min_cycle;Max_cycle;Signal;HPM_P1;HPM_P2
2022/10/06 00:01:56;;;;;;;11.25;1.90;;;15.10;99.90;;;;;;4898919;29;20668;-60
2022/10/06 00:04:21;;;;;;;18.65;2.33;;;15.10;99.90;;;;;;4895017;29;20185;-60
2022/10/06 00:06:47;;;;;;;13.35;2.00;;;15.00;99.90;;;;;;4897282;29;20193;-60
2022/10/06 00:09:13;;;;;;;14.20;1.88;;;15.00;99.90;;;;;;4881667;29;20184;-60
2022/10/06 00:11:38;;;;;;;13.90;1.98;;;15.00;99.90;;;;;;4898042;29;20275;-60
2022/10/06 00:14:05;;;;;;;11.52;2.10;;;15.00;99.90;;;;;;4892683;29;20180;-61
2022/10/06 00:16:30;;;;;;;18.40;2.53;;;15.00;99.90;;;;;;4896169;29;20189;-60
2022/10/06 00:18:57;;;;;;;10.40;2.00;;;15.00;99.90;;;;;;4896958;29;20289;-60
2022/10/06 00:21:23;;;;;;;17.75;1.58;;;14.90;99.90;;;;;;4898158;29;20196;-60
2022/10/06 00:23:49;;;;;;;14.80;1.65;;;15.00;99.90;;;;;;4895589;29;20181;-60
2022/10/06 00:26:15;;;;;;;12.52;2.22;;;15.00;99.90;;;;;;4894899;29;20267;-61
2022/10/06 00:28:47;;;;;;;11.93;2.10;;;15.00;99.90;;;;;;4896892;29;20676;-63
2022/10/06 00:31:14;;;;;;;12.27;2.03;;;15.00;99.90;;;;;;4898310;29;20629;-61
2022/10/06 00:33:41;;;;;;;14.80;1.80;;;14.90;99.90;;;;;;4895950;29;20220;-61
2022/10/06 00:36:07;;;;;;;13.75;2.03;;;14.90;99.90;;;;;;4881548;29;20200;-61
2022/10/06 00:38:33;;;;;;;19.27;2.08;;;14.90;99.90;;;;;;4896911;29;20208;-60
2022/10/06 00:40:59;;;;;;;13.40;1.80;;;14.90;99.90;;;;;;4898155;29;20680;-61
2022/10/06 00:43:40;;;;;;;12.27;1.85;;;14.90;99.90;;;;;;4863617;29;20263;-61
2022/10/06 00:46:09;;;;;;;16.33;1.75;;;14.80;99.90;;;;;;4892051;29;20633;-60
2022/10/06 00:48:35;;;;;;;18.48;2.30;;;14.80;99.90;;;;;;4896752;29;20195;-60
2022/10/06 00:51:01;;;;;;;13.35;1.52;;;14.80;99.90;;;;;;4898231;29;20180;-61
2022/10/06 00:53:29;;;;;;;9.82;1.63;;;14.80;99.90;;;;;;4896001;29;20216;-62
2022/10/06 00:55:56;;;;;;;11.70;1.98;;;14.80;99.90;;;;;;4891627;29;20196;-60
2022/10/06 00:58:21;;;;;;;15.30;1.83;;;14.80;99.90;;;;;;4896974;29;20662;-61
2022/10/06 01:00:52;;;;;;;8.52;1.77;;;14.80;99.90;;;;;;4897792;29;20188;-60
2022/10/06 01:03:26;;;;;;;14.60;2.38;;;14.70;99.90;;;;;;4900696;29;20191;-61
2022/10/06 01:05:55;;;;;;;9.32;1.77;;;14.80;99.90;;;;;;4895066;29;20638;-61
2022/10/06 01:08:21;;;;;;;12.80;1.73;;;14.80;99.90;;;;;;4901576;29;20234;-61
2022/10/06 01:10:47;;;;;;;12.13;1.75;;;14.80;99.90;;;;;;4885435;29;20188;-60
2022/10/06 01:13:14;;;;;;;10.80;1.80;;;14.80;99.90;;;;;;4900489;29;20526;-60
2022/10/06 01:15:48;;;;;;;9.40;1.77;;;14.80;99.90;;;;;;4883312;29;20180;-61
2022/10/06 01:18:17;;;;;;;11.00;1.60;;;14.70;99.90;;;;;;4900928;29;20210;-60
2022/10/06 01:20:52;;;;;;;11.70;1.65;;;14.70;99.90;;;;;;4892715;29;20177;-60
2022/10/06 01:23:18;;;;;;;16.88;2.03;;;14.70;99.90;;;;;;4882535;29;20240;-60
2022/10/06 01:25:45;;;;;;;9.23;1.70;;;14.70;99.90;;;;;;4886642;29;20220;-61
2022/10/06 01:28:12;;;;;;;13.63;2.30;;;14.70;99.90;;;;;;4896369;29;20197;-60
2022/10/06 01:30:51;;;;;;;14.27;1.90;;;14.70;99.90;;;;;;4897346;29;20209;-61
2022/10/06 01:33:19;;;;;;;11.73;1.92;;;14.70;99.90;;;;;;4884847;29;20680;-60
2022/10/06 01:35:49;;;;;;;15.43;2.15;;;14.60;99.90;;;;;;4899639;29;20184;-60
2022/10/06 01:38:16;;;;;;;13.95;2.00;;;14.60;99.90;;;;;;4893993;29;20260;-61
2022/10/06 01:40:44;;;;;;;14.00;2.10;;;14.60;99.90;;;;;;4899333;29;20181;-61
2022/10/06 01:43:10;;;;;;;13.70;2.03;;;14.60;99.90;;;;;;4901104;29;20274;-61
2022/10/06 01:45:36;;;;;;;12.73;1.80;;;14.60;99.90;;;;;;4900513;29;20216;-61
2022/10/06 01:48:02;;;;;;;16.13;2.15;;;14.60;99.90;;;;;;4896334;29;20201;-61
2022/10/06 01:50:29;;;;;;;18.83;2.17;;;14.60;99.90;;;;;;4883662;29;20189;-60
2022/10/06 01:52:56;;;;;;;14.05;1.90;;;14.60;99.90;;;;;;4899636;29;20195;-60
2022/10/06 01:55:23;;;;;;;12.48;2.15;;;14.60;99.90;;;;;;4899178;29;20181;-61
2022/10/06 01:57:49;;;;;;;15.30;1.90;;;14.60;99.90;;;;;;4896963;29;20287;-62
2022/10/06 02:00:16;;;;;;;15.13;2.25;;;14.60;99.90;;;;;;4911646;29;20196;-61
2022/10/06 02:02:43;;;;;;;10.60;1.58;;;14.60;99.90;;;;;;4899836;29;20211;-61
2022/10/06 02:05:09;;;;;;;18.13;2.22;;;14.60;99.90;;;;;;4900367;29;20181;-61
2022/10/06 02:07:38;;;;;;;12.85;1.80;;;14.50;99.90;;;;;;4898119;29;20193;-60
2022/10/06 02:10:05;;;;;;;17.33;2.05;;;14.50;99.90;;;;;;4896128;29;20183;-61
2022/10/06 02:12:33;;;;;;;18.85;2.83;;;14.50;99.90;;;;;;4882926;29;20214;-61
2022/10/06 02:14:59;;;;;;;13.25;2.15;;;14.50;99.90;;;;;;4898814;29;20240;-61
2022/10/06 02:17:25;;;;;;;18.98;2.10;;;14.50;99.90;;;;;;4899139;29;20264;-61
2022/10/06 02:19:51;;;;;;;10.68;1.92;;;14.50;99.90;;;;;;4881550;29;20531;-60
2022/10/06 02:22:18;;;;;;;11.65;2.30;;;14.50;99.90;;;;;;4883756;29;20188;-61
2022/10/06 02:24:46;;;;;;;15.45;2.30;;;14.50;99.90;;;;;;4900540;29;20272;-61
2022/10/06 02:27:12;;;;;;;14.73;2.35;;;14.40;99.90;;;;;;4898971;29;20280;-61
2022/10/06 02:29:38;;;;;;;17.23;2.08;;;14.50;99.90;;;;;;4896548;29;20185;-61
2022/10/06 02:32:04;;;;;;;17.38;2.05;;;14.50;99.90;;;;;;4881717;29;20195;-61
2022/10/06 02:34:30;;;;;;;13.85;1.98;;;14.50;99.90;;;;;;4883702;29;20191;-60
2022/10/06 02:36:56;;;;;;;14.48;2.10;;;14.50;99.90;;;;;;4899256;29;20317;-61
2022/10/06 02:39:23;;;;;;;13.02;1.95;;;14.40;99.90;;;;;;4897904;29;20692;-61
2022/10/06 02:41:48;;;;;;;14.95;2.55;;;14.40;99.90;;;;;;4910436;29;20216;-61
2022/10/06 02:44:14;;;;;;;12.82;2.40;;;14.40;99.90;;;;;;4882237;29;20239;-64
2022/10/06 02:46:42;;;;;;;13.15;1.98;;;14.40;99.90;;;;;;4898942;29;20188;-61
2022/10/06 02:49:08;;;;;;;21.90;2.22;;;14.40;99.90;;;;;;4900009;29;20625;-61
2022/10/06 02:51:34;;;;;;;18.98;2.47;;;14.40;99.90;;;;;;4876392;29;20276;-61
2022/10/06 02:54:01;;;;;;;13.43;2.20;;;14.40;99.90;;;;;;4897432;29;20200;-63
2022/10/06 02:56:27;;;;;;;12.88;2.17;;;14.40;99.90;;;;;;4898825;29;20558;-61
2022/10/06 02:58:53;;;;;;;21.13;2.08;;;14.40;99.90;;;;;;4899412;29;20213;-61
2022/10/06 03:01:25;;;;;;;17.20;1.95;;;14.40;99.90;;;;;;4896515;29;20189;-61
2022/10/06 03:03:54;;;;;;;11.75;1.95;;;14.30;99.90;;;;;;4895337;29;20578;-61
2022/10/06 03:06:22;;;;;;;15.90;2.00;;;14.30;99.90;;;;;;4898503;29;20192;-60
2022/10/06 03:09:05;;;;;;;17.02;2.08;;;14.30;99.90;;;;;;4898185;29;20188;-60
2022/10/06 03:11:35;;;;;;;11.52;2.30;;;14.30;99.90;;;;;;4897826;29;20184;-60
2022/10/06 03:14:02;;;;;;;17.85;2.60;;;14.30;99.90;;;;;;4892956;29;20642;-60
2022/10/06 03:16:31;;;;;;;16.58;1.85;;;14.30;99.90;;;;;;4895071;29;20189;-60
2022/10/06 03:18:58;;;;;;;18.23;2.40;;;14.20;99.90;;;;;;4897771;29;20220;-62
2022/10/06 03:21:28;;;;;;;16.33;2.20;;;14.20;99.90;;;;;;4898008;29;20196;-60
2022/10/06 03:23:55;;;;;;;19.48;2.20;;;14.20;99.90;;;;;;4893944;29;20191;-61
2022/10/06 03:26:26;;;;;;;13.43;2.30;;;14.20;99.90;;;;;;4897956;29;20254;-60
2022/10/06 03:28:52;;;;;;;17.00;2.33;;;14.20;99.90;;;;;;4897888;29;20188;-60
2022/10/06 03:31:18;;;;;;;18.42;2.50;;;14.20;99.90;;;;;;4897830;29;20192;-62
2022/10/06 03:33:44;;;;;;;9.60;2.03;;;14.20;99.90;;;;;;4878584;29;20302;-61
2022/10/06 03:36:13;;;;;;;12.55;2.20;;;14.20;99.90;;;;;;4898316;29;20263;-60
2022/10/06 03:38:39;;;;;;;13.88;2.15;;;14.10;99.90;;;;;;4897452;29;20216;-60
2022/10/06 03:41:14;;;;;;;14.23;2.10;;;14.10;99.90;;;;;;4898897;29;20185;-60
2022/10/06 03:43:46;;;;;;;23.15;2.17;;;14.10;99.90;;;;;;4895784;29;20236;-61
2022/10/06 03:46:15;;;;;;;12.45;1.90;;;14.10;99.90;;;;;;4894865;29;20227;-61
2022/10/06 03:48:41;;;;;;;15.95;2.30;;;14.10;99.90;;;;;;4897801;29;20188;-61
2022/10/06 03:51:18;;;;;;;12.63;2.13;;;14.10;99.90;;;;;;4898183;29;20180;-61
2022/10/06 03:53:46;;;;;;;21.85;2.50;;;14.10;99.90;;;;;;4896822;29;20311;-61
2022/10/06 03:56:18;;;;;;;16.83;1.90;;;14.00;99.90;;;;;;4893532;29;20183;-61
2022/10/06 03:58:47;;;;;;;15.30;2.08;;;14.10;99.90;;;;;;4896982;29;20205;-61
2022/10/06 04:01:34;;;;;;;12.32;1.77;;;14.00;99.90;;;;;;4897466;29;20185;-61
2022/10/06 04:04:03;;;;;;;13.60;1.65;;;14.00;99.90;;;;;;4896555;29;20244;-61
2022/10/06 04:06:32;;;;;;;12.75;2.10;;;14.00;99.90;;;;;;4877654;29;20184;-61
2022/10/06 04:08:59;;;;;;;13.95;1.90;;;14.00;99.90;;;;;;4897458;29;20256;-61
2022/10/06 04:11:31;;;;;;;17.92;2.35;;;14.00;99.90;;;;;;4897624;29;20229;-61
2022/10/06 04:14:04;;;;;;;17.02;2.10;;;14.00;99.90;;;;;;4896933;29;20256;-61
2022/10/06 04:16:38;;;;;;;15.85;2.13;;;14.00;99.90;;;;;;4894937;29;20219;-61
2022/10/06 04:19:08;;;;;;;11.95;2.03;;;13.90;99.90;;;;;;4896275;29;20212;-61
2022/10/06 04:21:38;;;;;;;13.85;2.25;;;14.00;99.90;;;;;;4896860;29;20181;-61
2022/10/06 04:24:07;;;;;;;9.80;1.65;;;14.00;99.90;;;;;;4897131;29;20180;-61
2022/10/06 04:26:40;;;;;;;19.77;2.10;;;14.00;99.90;;;;;;4893397;29;20275;-61
2022/10/06 04:29:06;;;;;;;11.77;1.92;;;14.00;99.90;;;;;;4896412;29;20223;-61
2022/10/06 04:31:35;;;;;;;12.38;1.70;;;13.90;99.90;;;;;;4897070;29;20209;-61
2022/10/06 04:34:04;;;;;;;18.98;1.85;;;13.90;99.90;;;;;;4882375;29;20235;-61
2022/10/06 04:36:32;;;;;;;14.57;2.08;;;13.90;99.90;;;;;;4895393;29;20272;-61
2022/10/06 04:39:01;;;;;;;10.43;2.33;;;13.90;99.90;;;;;;4896849;29;20244;-61
2022/10/06 04:41:36;;;;;;;23.23;2.30;;;13.90;99.90;;;;;;4889485;29;20678;-61
2022/10/06 04:44:03;;;;;;;16.80;2.38;;;13.90;99.90;;;;;;4879110;29;20235;-61
2022/10/06 04:46:31;;;;;;;8.40;1.60;;;13.90;99.90;;;;;;4894414;29;20192;-61
2022/10/06 04:48:57;;;;;;;23.45;2.47;;;13.90;99.90;;;;;;4891991;29;20208;-61
2022/10/06 04:51:26;;;;;;;13.45;2.15;;;14.00;99.90;;;;;;4881741;29;20692;-62
2022/10/06 04:53:53;;;;;;;11.38;2.28;;;13.90;99.90;;;;;;4895321;29;20192;-61
2022/10/06 04:56:28;;;;;;;15.48;2.13;;;14.00;99.90;;;;;;4895905;29;20634;-61
2022/10/06 04:58:56;;;;;;;15.43;2.20;;;13.90;99.90;;;;;;4887458;29;20227;-61
2022/10/06 05:01:31;;;;;;;13.45;2.13;;;14.00;99.90;;;;;;4894054;29;20220;-61
2022/10/06 05:04:00;;;;;;;8.57;1.73;;;13.90;99.90;;;;;;4895286;29;20188;-62
2022/10/06 05:06:36;;;;;;;12.07;1.88;;;13.90;99.90;;;;;;4883279;29;20181;-59
2022/10/06 05:09:05;;;;;;;17.30;1.98;;;13.90;99.90;;;;;;4889233;29;20188;-50
2022/10/06 05:11:32;;;;;;;13.05;1.90;;;13.90;99.90;;;;;;4897200;29;20176;-61
2022/10/06 05:13:59;;;;;;;12.65;2.15;;;13.90;99.90;;;;;;4896231;29;20200;-57
2022/10/06 05:16:29;;;;;;;12.55;2.50;;;13.90;99.90;;;;;;4877079;29;20218;-54
2022/10/06 05:18:55;;;;;;;12.07;1.85;;;13.90;99.90;;;;;;4889448;29;20749;-58
2022/10/06 05:21:24;;;;;;;14.23;1.85;;;13.90;99.90;;;;;;4894154;29;20208;-53
2022/10/06 05:23:50;;;;;;;13.20;1.88;;;13.80;99.90;;;;;;4896603;29;20192;-54
2022/10/06 05:26:19;;;;;;;14.38;2.28;;;13.80;99.90;;;;;;4896726;29;20214;-55
2022/10/06 05:28:45;;;;;;;15.35;2.03;;;13.80;99.90;;;;;;4879749;29;20280;-63
2022/10/06 05:31:20;;;;;;;14.35;2.25;;;13.80;99.90;;;;;;4891662;29;20181;-53
2022/10/06 05:33:47;;;;;;;16.60;2.25;;;13.70;99.90;;;;;;4897442;29;20188;-55
2022/10/06 05:36:16;;;;;;;18.38;2.47;;;13.80;99.90;;;;;;4896620;29;20191;-59
2022/10/06 05:38:43;;;;;;;15.15;2.33;;;13.80;99.90;;;;;;4895256;29;20217;-61
2022/10/06 05:41:18;;;;;;;12.77;2.03;;;13.70;99.90;;;;;;4896498;29;20279;-51
2022/10/06 05:43:45;;;;;;;13.48;2.30;;;13.70;99.90;;;;;;4878881;29;20256;-62
2022/10/06 05:46:22;;;;;;;23.08;2.58;;;13.70;99.90;;;;;;4895515;29;20288;-62
2022/10/06 05:48:50;;;;;;;15.60;1.88;;;13.70;99.90;;;;;;4900170;29;20184;-63
2022/10/06 05:51:19;;;;;;;15.02;1.95;;;13.70;99.90;;;;;;4899161;29;20249;-66
2022/10/06 05:53:47;;;;;;;12.98;2.00;;;13.70;99.90;;;;;;4897345;29;20196;-58
2022/10/06 05:56:14;;;;;;;17.05;2.22;;;13.60;99.90;;;;;;4897328;29;20188;-58
2022/10/06 05:58:43;;;;;;;18.45;2.33;;;13.60;99.90;;;;;;4899607;29;20572;-60
2022/10/06 06:01:18;;;;;;;15.65;2.55;;;13.70;99.90;;;;;;4898621;29;20668;-54
2022/10/06 06:03:59;;;;;;;17.33;2.05;;;13.70;99.90;;;;;;4895794;29;20190;-55
2022/10/06 06:06:27;;;;;;;12.40;2.22;;;13.70;99.90;;;;;;4895230;29;20220;-55
2022/10/06 06:09:06;;;;;;;19.25;2.35;;;13.70;99.90;;;;;;4899620;29;20196;-51
2022/10/06 06:11:33;;;;;;;17.60;2.80;;;13.70;99.90;;;;;;4899602;29;20207;-65
2022/10/06 06:14:07;;;;;;;20.30;2.40;;;13.70;99.90;;;;;;4884206;29;20225;-53
2022/10/06 06:16:35;;;;;;;20.13;3.22;;;13.70;99.90;;;;;;4895853;29;20279;-57
2022/10/06 06:19:02;;;;;;;20.80;2.85;;;13.70;99.90;;;;;;4897866;29;20209;-56
2022/10/06 06:21:28;;;;;;;20.73;2.58;;;13.80;99.90;;;;;;4898672;29;20622;-61
2022/10/06 06:23:55;;;;;;;20.27;2.47;;;13.80;99.90;;;;;;4887821;29;20207;-62
2022/10/06 06:26:29;;;;;;;17.95;2.47;;;13.70;99.90;;;;;;4890823;29;20193;-62
2022/10/06 06:29:02;;;;;;;9.85;2.03;;;13.80;99.90;;;;;;4894975;29;20192;-61
2022/10/06 06:31:33;;;;;;;14.65;2.05;;;13.80;99.90;;;;;;4880629;29;20196;-61
2022/10/06 06:34:10;;;;;;;12.48;1.83;;;13.80;99.90;;;;;;4894931;29;20204;-61
2022/10/06 06:36:45;;;;;;;19.63;2.42;;;13.80;99.90;;;;;;4886404;29;20240;-61
2022/10/06 06:39:14;;;;;;;14.85;2.10;;;13.80;99.90;;;;;;4893020;29;20212;-61
2022/10/06 06:41:45;;;;;;;15.07;1.70;;;13.80;99.90;;;;;;4877605;29;20191;-67
2022/10/06 06:44:29;;;;;;;17.80;2.63;;;13.80;99.90;;;;;;4885315;29;20289;-68
2022/10/06 06:47:05;;;;;;;21.05;2.22;;;13.80;99.90;;;;;;4890033;29;20200;-67
2022/10/06 06:49:31;;;;;;;20.63;2.17;;;13.90;99.90;;;;;;4881532;29;20193;-65
2022/10/06 06:52:03;;;;;;;14.05;2.00;;;13.90;99.90;;;;;;4871777;29;20198;-62
2022/10/06 06:54:29;;;;;;;18.08;2.22;;;13.90;99.90;;;;;;4898059;29;20236;-63
2022/10/06 06:57:01;;;;;;;17.23;2.08;;;13.90;99.90;;;;;;4895951;29;20279;-63
2022/10/06 06:59:26;;;;;;;10.90;1.98;;;13.90;99.90;;;;;;4883032;29;20589;-65
2022/10/06 07:01:56;;;;;;;13.88;2.00;;;13.90;99.90;;;;;;4873591;29;20714;-64
2022/10/06 07:04:22;;;;;;;22.35;2.67;;;13.90;99.90;;;;;;4894764;29;20189;-66
2022/10/06 07:07:06;;;;;;;12.02;1.83;;;14.00;99.90;;;;;;4896782;29;20189;-61
2022/10/06 07:09:35;;;;;;;15.75;2.00;;;14.00;99.90;;;;;;4885009;29;20987;-63
2022/10/06 07:12:04;;;;;;;13.73;2.17;;;14.00;99.90;;;;;;4878501;29;20236;-62
2022/10/06 07:14:30;;;;;;;17.10;2.00;;;14.10;99.90;;;;;;4876774;29;20189;-60
2022/10/06 07:25:24;;;;;;;17.42;2.63;;;14.20;99.90;;;;;;4898190;29;20274;-63
2022/10/06 07:27:53;;;;;;;14.80;2.28;;;14.20;99.90;;;;;;4894025;29;20661;-63
2022/10/06 07:30:26;;;;;;;10.80;2.17;;;14.20;99.90;;;;;;4879339;29;20182;-62
2022/10/06 07:33:21;;;;;;;12.50;2.38;;;14.30;99.90;;;;;;4887025;29;20192;-63
2022/10/06 07:35:48;;;;;;;16.13;2.13;;;14.30;99.90;;;;;;4881555;29;20280;-63
2022/10/06 07:38:17;;;;;;;19.55;1.85;;;14.30;99.90;;;;;;4893663;29;20241;-63
2022/10/06 07:40:53;;;;;;;9.18;1.58;;;14.40;99.90;;;;;;4872372;29;20637;-63
2022/10/06 07:43:20;;;;;;;14.70;2.15;;;14.40;99.90;;;;;;4893752;29;20328;-63
2022/10/06 07:45:48;;;;;;;18.45;1.60;;;14.50;99.90;;;;;;4878575;29;20189;-63
2022/10/06 07:48:32;;;;;;;11.32;1.75;;;14.60;99.90;;;;;;4878757;29;20664;-62
2022/10/06 07:51:01;;;;;;;11.68;1.52;;;14.60;99.90;;;;;;4896001;29;20185;-63
2022/10/06 07:53:32;;;;;;;16.17;1.90;;;14.60;99.90;;;;;;4887660;29;20216;-63
2022/10/06 07:56:07;;;;;;;10.38;1.90;;;14.70;99.90;;;;;;4884222;29;20815;-63
2022/10/06 07:58:37;;;;;;;13.48;2.38;;;14.70;99.90;;;;;;4898385;29;20613;-63
2022/10/06 08:01:05;;;;;;;9.60;2.00;;;14.80;99.90;;;;;;4886716;29;20180;-63
2022/10/06 08:03:31;;;;;;;16.25;1.70;;;14.90;99.90;;;;;;4896474;29;20216;-63
2022/10/06 08:05:59;;;;;;;19.85;2.30;;;14.90;99.90;;;;;;4890892;29;20255;-63
2022/10/06 08:08:25;;;;;;;8.27;1.60;;;15.00;99.90;;;;;;4883409;29;20184;-63
2022/10/06 08:10:54;;;;;;;10.43;1.88;;;15.00;99.90;;;;;;4895145;29;20196;-64
2022/10/06 08:13:20;;;;;;;13.02;1.70;;;15.00;99.90;;;;;;4896199;29;20185;-63
2022/10/06 08:15:48;;;;;;;11.90;2.13;;;15.10;99.90;;;;;;4896636;29;20585;-64
2022/10/06 08:18:15;;;;;;;12.80;2.22;;;15.20;99.90;;;;;;4886648;29;20667;-63
2022/10/06 08:20:41;;;;;;;13.90;2.00;;;15.20;99.90;;;;;;4890194;29;20225;-63
2022/10/06 08:23:11;;;;;;;10.50;1.70;;;15.30;99.90;;;;;;4891550;29;20198;-63
2022/10/06 08:25:42;;;;;;;12.10;2.05;;;15.30;99.90;;;;;;4878850;29;20219;-63
2022/10/06 08:28:12;;;;;;;12.73;1.60;;;15.40;99.90;;;;;;4883126;29;20204;-63
2022/10/06 08:30:38;;;;;;;21.30;2.20;;;15.40;99.90;;;;;;4884425;29;20200;-63
2022/10/06 08:33:05;;;;;;;9.25;1.73;;;15.50;99.90;;;;;;4896188;29;20228;-63
2022/10/06 08:35:34;;;;;;;12.25;1.77;;;15.50;99.90;;;;;;4897747;29;20335;-63
2022/10/06 08:38:00;;;;;;;13.20;1.70;;;15.50;99.90;;;;;;4894753;29;20301;-63
2022/10/06 08:40:28;;;;;;;13.60;1.75;;;15.60;99.90;;;;;;4884126;29;20669;-63
2022/10/06 08:43:00;;;;;;;10.73;1.77;;;15.60;99.90;;;;;;4891627;29;20236;-63
2022/10/06 08:45:38;;;;;;;7.78;1.70;;;15.70;99.90;;;;;;4886565;29;20280;-63
2022/10/06 08:48:18;;;;;;;14.55;1.88;;;15.70;99.90;;;;;;4887520;29;20197;-63
2022/10/06 08:50:46;;;;;;;14.80;2.30;;;15.70;99.90;;;;;;4883671;29;20192;-63
2022/10/06 08:53:29;;;;;;;13.57;2.00;;;15.70;99.90;;;;;;4885633;29;20189;-63
2022/10/06 08:56:09;;;;;;;14.98;2.15;;;15.80;99.90;;;;;;4896836;29;20658;-63
2022/10/06 08:58:54;;;;;;;7.43;1.80;;;15.70;99.90;;;;;;4894202;29;20291;-63
2022/10/06 09:01:23;;;;;;;18.30;2.80;;;15.80;99.70;;;;;;4892345;29;20538;-63
2022/10/06 09:03:53;;;;;;;9.18;1.48;;;15.80;99.90;;;;;;4895262;29;20601;-63
2022/10/06 09:07:11;;;;;;;13.82;2.28;;;15.80;99.60;;;;;;4895196;29;20213;-63
2022/10/06 09:09:36;;;;;;;43.10;3.75;;;15.90;99.20;;;;;;4863021;29;20232;-63
2022/10/06 09:12:34;;;;;;;9.57;1.98;;;15.90;99.30;;;;;;4880338;29;20225;-64
2022/10/06 09:15:18;;;;;;;15.07;1.65;;;15.90;98.40;;;;;;4887578;29;20212;-63
2022/10/06 09:17:49;;;;;;;6.00;1.13;;;15.90;98.70;;;;;;4895717;29;20303;-62
2022/10/06 09:20:34;;;;;;;10.40;1.55;;;15.90;98.10;;;;;;4896769;29;20189;-63
2022/10/06 09:23:04;;;;;;;19.75;3.25;;;15.80;97.60;;;;;;4894756;29;20212;-62
2022/10/06 09:25:30;;;;;;;32.38;6.18;;;15.80;97.90;;;;;;4901447;29;20181;-63
2022/10/06 09:27:58;;;;;;;16.95;3.70;;;15.80;97.80;;;;;;4898922;29;20216;-63
2022/10/06 09:30:24;;;;;;;14.88;2.53;;;15.80;97.80;;;;;;4884572;29;20660;-63
2022/10/06 09:33:02;;;;;;;16.85;3.45;;;15.90;97.80;;;;;;4896597;29;20233;-63
2022/10/06 09:35:30;;;;;;;16.90;1.80;;;15.90;97.70;;;;;;4890362;29;20276;-63
2022/10/06 09:38:03;;;;;;;16.23;2.22;;;15.90;97.60;;;;;;4895398;29;20267;-63
2022/10/06 09:40:50;;;;;;;14.60;2.38;;;15.90;97.60;;;;;;4882507;29;20182;-62
2022/10/06 09:43:27;;;;;;;16.45;1.88;;;15.90;97.70;;;;;;4899279;29;20276;-63
2022/10/06 09:45:54;;;;;;;26.15;2.10;;;16.00;97.80;;;;;;4888597;29;20188;-63
2022/10/06 09:48:28;;;;;;;16.83;2.67;;;16.00;97.80;;;;;;4887086;29;20189;-63
2022/10/06 09:51:14;;;;;;;18.85;2.83;;;16.00;97.90;;;;;;4898344;29;20180;-63
2022/10/06 09:53:41;;;;;;;12.93;2.22;;;16.00;98.10;;;;;;4898707;29;20264;-62
2022/10/06 09:56:20;;;;;;;12.82;2.60;;;16.10;98.10;;;;;;4900897;29;20177;-62
2022/10/06 09:58:57;;;;;;;17.50;2.00;;;16.10;97.70;;;;;;4887536;29;20272;-62
2022/10/06 10:01:28;;;;;;;11.40;1.77;;;16.10;97.60;;;;;;4889018;29;20195;-62
2022/10/06 10:04:07;;;;;;;14.57;2.10;;;16.10;97.80;;;;;;4884666;29;20217;-62
2022/10/06 10:06:36;;;;;;;13.90;2.08;;;16.20;97.70;;;;;;4898476;29;20206;-62
2022/10/06 10:09:25;;;;;;;9.57;1.65;;;16.20;97.40;;;;;;4898177;29;20199;-63
2022/10/06 10:14:44;;;;;;;18.20;1.77;;;16.30;97.50;;;;;;4887520;29;20177;-62
2022/10/06 10:17:16;;;;;;;9.40;1.77;;;16.40;97.20;;;;;;4898118;29;20197;-62
2022/10/06 10:19:43;;;;;;;13.93;2.15;;;16.40;97.10;;;;;;4898845;29;20304;-62
2022/10/06 10:22:39;;;;;;;11.43;1.60;;;16.40;97.10;;;;;;4897283;29;20658;-64
2022/10/06 10:25:14;;;;;;;9.88;1.75;;;16.50;96.00;;;;;;4877321;29;20670;-62
2022/10/06 10:27:57;;;;;;;11.98;1.70;;;16.50;96.40;;;;;;4891690;29;20610;-60
2022/10/06 10:30:23;;;;;;;14.73;1.85;;;16.50;96.20;;;;;;4899910;29;20734;-59
2022/10/06 10:33:14;;;;;;;13.55;2.13;;;16.50;96.00;;;;;;4890930;29;20638;-60
2022/10/06 10:35:45;;;;;;;10.75;2.13;;;16.50;95.60;;;;;;4889960;29;20188;-60
2022/10/06 10:38:14;;;;;;;14.55;1.55;;;16.50;95.50;;;;;;4893964;29;20223;-63
2022/10/06 10:40:52;;;;;;;12.07;1.75;;;16.50;95.40;;;;;;4886248;29;20653;-60
2022/10/06 10:43:30;;;;;;;9.98;1.67;;;16.60;95.40;;;;;;4886682;29;20232;-60
2022/10/06 10:46:09;;;;;;;9.15;1.70;;;16.60;95.40;;;;;;4880465;29;20173;-61
2022/10/06 10:49:02;;;;;;;13.60;2.10;;;16.60;95.30;;;;;;4892946;29;20204;-60
2022/10/06 10:51:32;;;;;;;14.32;2.15;;;16.60;95.40;;;;;;4886269;29;20177;-62
2022/10/06 10:54:04;;;;;;;9.32;1.67;;;16.60;95.50;;;;;;4897227;29;20705;-61
2022/10/06 10:56:32;;;;;;;12.02;1.65;;;16.60;95.30;;;;;;4890213;29;20228;-62
2022/10/06 10:59:09;;;;;;;16.40;1.88;;;16.80;95.40;;;;;;4895139;29;20247;-60
2022/10/06 11:01:49;;;;;;;21.10;1.85;;;16.90;95.10;;;;;;4898161;29;20184;-60
2022/10/06 11:04:15;;;;;;;14.27;2.25;;;17.00;94.70;;;;;;4898760;29;20189;-60
2022/10/06 11:07:03;;;;;;;14.35;1.80;;;17.10;95.00;;;;;;4895242;29;20661;-61
2022/10/06 11:09:49;;;;;;;15.45;1.90;;;17.20;94.80;;;;;;4883830;29;20180;-61
2022/10/06 11:13:23;;;;;;;11.23;2.38;;;17.20;94.30;;;;;;4883264;29;20273;-60
2022/10/06 11:16:03;;;;;;;17.05;2.00;;;17.30;94.10;;;;;;4840113;29;20254;-60
2022/10/06 11:18:41;;;;;;;9.70;1.63;;;17.30;94.40;;;;;;4831341;29;20214;-63
2022/10/06 11:21:36;;;;;;;10.80;1.80;;;17.30;94.60;;;;;;4871350;29;20203;-60
2022/10/06 11:24:14;;;;;;;9.18;1.75;;;17.30;94.00;;;;;;4896955;29;20244;-61
2022/10/06 11:26:52;;;;;;;13.35;2.20;;;17.30;94.10;;;;;;4893336;29;20189;-65
2022/10/06 11:29:40;;;;;;;10.57;1.70;;;17.30;94.20;;;;;;4895436;29;20279;-60
2022/10/06 11:32:26;;;;;;;12.93;1.67;;;17.40;94.20;;;;;;4888686;29;20271;-61
2022/10/06 11:34:52;;;;;;;16.67;2.47;;;17.50;94.20;;;;;;4897929;29;20227;-60
2022/10/06 11:37:45;;;;;;;15.30;3.47;;;17.60;94.30;;;;;;4893837;29;20603;-61
2022/10/06 11:40:20;;;;;;;14.13;2.78;;;17.70;94.30;;;;;;4884668;29;20196;-61
2022/10/06 11:43:16;;;;;;;22.02;3.75;;;17.80;93.80;;;;;;4885633;29;20247;-61
2022/10/06 11:46:00;;;;;;;14.50;2.10;;;17.80;93.40;;;;;;4816640;29;20281;-61
2022/10/06 11:48:29;;;;;;;8.32;1.67;;;17.80;93.40;;;;;;4890572;29;20691;-61
2022/10/06 11:50:56;;;;;;;21.42;1.90;;;17.80;93.60;;;;;;4895494;29;20245;-61
2022/10/06 11:53:31;;;;;;;17.15;2.40;;;17.90;93.60;;;;;;4896653;29;20197;-61
2022/10/06 11:56:17;;;;;;;13.40;2.78;;;17.90;93.60;;;;;;4897886;29;20215;-60
2022/10/06 11:58:55;;;;;;;13.02;2.10;;;18.00;93.10;;;;;;4890309;29;20295;-61
2022/10/06 12:01:29;;;;;;;15.93;1.90;;;18.10;92.90;;;;;;4884216;29;20185;-61
2022/10/06 12:04:07;;;;;;;17.27;1.95;;;18.00;93.00;;;;;;4896027;29;20191;-61
2022/10/06 12:06:43;;;;;;;15.75;2.00;;;17.90;92.90;;;;;;4898708;29;20231;-60
2022/10/06 12:09:29;;;;;;;14.07;1.80;;;17.90;92.90;;;;;;4890145;29;20208;-62
2022/10/06 12:11:58;;;;;;;16.13;2.28;;;17.70;92.60;;;;;;4885170;29;20180;-62
2022/10/06 12:14:50;;;;;;;17.90;2.53;;;17.70;92.70;;;;;;4898687;29;20185;-61
2022/10/06 12:17:39;;;;;;;10.68;1.80;;;17.80;92.30;;;;;;4896515;29;20189;-61
2022/10/06 12:20:33;;;;;;;16.20;2.10;;;17.80;91.70;;;;;;4886610;29;20662;-61
2022/10/06 12:23:11;;;;;;;12.57;2.03;;;17.90;91.70;;;;;;4885785;29;20181;-61
2022/10/06 12:25:55;;;;;;;8.80;1.80;;;18.00;91.30;;;;;;4898321;29;20231;-61
2022/10/06 12:28:43;;;;;;;10.38;1.90;;;17.90;91.40;;;;;;4895462;29;20228;-60
2022/10/06 12:31:54;;;;;;;15.73;2.25;;;17.80;90.50;;;;;;4884983;29;20220;-62
2022/10/06 12:34:40;;;;;;;14.35;1.50;;;17.80;90.80;;;;;;4864679;29;20268;-62
2022/10/06 12:37:28;;;;;;;11.77;1.58;;;17.90;90.90;;;;;;4882810;29;20200;-61
2022/10/06 12:40:31;;;;;;;9.27;2.30;;;18.10;90.60;;;;;;4897191;29;20588;-61
2022/10/06 12:43:18;;;;;;;14.52;2.25;;;18.30;90.60;;;;;;4884298;29;20232;-61
2022/10/06 12:45:58;;;;;;;21.98;2.35;;;18.40;90.10;;;;;;4896374;29;20196;-61
2022/10/06 12:48:52;;;;;;;13.85;2.20;;;18.40;90.50;;;;;;4889356;29;20211;-60
2022/10/06 12:51:32;;;;;;;9.68;1.42;;;18.60;90.00;;;;;;4890130;29;20200;-61
2022/10/06 12:54:19;;;;;;;14.27;1.50;;;18.60;86.80;;;;;;4888430;29;20248;-61
2022/10/06 12:57:14;;;;;;;16.00;1.92;;;18.50;87.00;;;;;;4861077;29;20200;-60
2022/10/06 12:59:40;;;;;;;10.60;1.85;;;18.40;88.00;;;;;;4882969;29;20204;-60
2022/10/06 13:02:21;;;;;;;7.40;1.48;;;18.30;89.00;;;;;;4869897;29;20190;-61
2022/10/06 13:04:52;;;;;;;13.20;2.05;;;18.30;89.60;;;;;;4889854;29;20192;-61
2022/10/06 13:07:22;;;;;;;13.40;2.15;;;18.20;89.20;;;;;;4898072;29;20215;-60
2022/10/06 13:09:52;;;;;;;8.30;1.45;;;18.20;89.70;;;;;;4899447;29;20232;-61
2022/10/06 13:12:30;;;;;;;14.38;1.80;;;18.10;90.20;;;;;;4881683;29;20189;-63
2022/10/06 13:15:20;;;;;;;9.77;1.65;;;18.30;90.20;;;;;;4893855;29;20264;-63
2022/10/06 13:17:51;;;;;;;11.35;1.90;;;18.30;89.70;;;;;;4896075;29;20200;-60